Time;durP1;ratioP1;P1;durP2;ratioP2;P2;SDS_P1;SDS_P2;PMS_P1;PMS_P2;Temp;Humidity;BMP_temperature;BMP_pressure;BME280_temperature;BME280_humidity;BME280_pressure;Samples;Min_cycle;Max_cycle;Signal;HPM_P1;HPM_P2
2022/03/21 00:00:52;;;;;;;4.10;3.90;;;17.20;60.60;;;;;;4993682;28;20589;-13
2022/03/21 00:03:19;;;;;;;4.28;3.97;;;17.20;60.60;;;;;;4996618;28;20042;-13
2022/03/21 00:05:45;;;;;;;4.35;4.05;;;17.20;60.60;;;;;;4995040;28;20058;-13
2022/03/21 00:08:11;;;;;;;4.30;3.95;;;17.20;60.60;;;;;;4996067;28;20057;-12
2022/03/21 00:10:38;;;;;;;4.00;3.80;;;17.20;60.60;;;;;;4995407;28;20046;-12
2022/03/21 00:13:04;;;;;;;4.35;4.05;;;17.20;60.60;;;;;;4996261;28;20501;-14
2022/03/21 00:15:31;;;;;;;4.60;4.20;;;17.10;60.70;;;;;;4994871;28;20097;-13
2022/03/21 00:17:57;;;;;;;3.83;3.63;;;17.10;60.70;;;;;;4996133;28;20080;-13
2022/03/21 00:20:22;;;;;;;4.60;4.30;;;17.10;60.70;;;;;;4996125;28;20042;-12
2022/03/21 00:22:48;;;;;;;4.63;4.32;;;17.20;60.80;;;;;;4994082;28;20046;-13
2022/03/21 00:25:13;;;;;;;4.32;4.07;;;17.10;60.70;;;;;;4995795;28;20042;-13
2022/03/21 00:27:40;;;;;;;4.03;3.80;;;17.10;60.70;;;;;;4995057;28;20121;-13
2022/03/21 00:30:06;;;;;;;4.25;3.95;;;17.10;60.70;;;;;;4994756;28;20097;-12
2022/03/21 00:32:32;;;;;;;4.20;3.90;;;17.20;60.80;;;;;;4995467;28;20043;-13
2022/03/21 00:34:57;;;;;;;4.22;4.00;;;17.10;60.80;;;;;;4995131;28;20069;-13
2022/03/21 00:37:23;;;;;;;4.10;3.90;;;17.20;60.80;;;;;;4995738;28;20499;-12
2022/03/21 00:39:50;;;;;;;5.15;4.80;;;17.10;60.70;;;;;;4993379;28;20515;-12
2022/03/21 00:42:16;;;;;;;4.07;3.88;;;17.10;60.80;;;;;;4994717;28;20070;-13
2022/03/21 00:44:42;;;;;;;4.30;4.00;;;17.10;60.70;;;;;;4994478;28;20035;-13
2022/03/21 00:47:07;;;;;;;4.50;4.18;;;17.10;60.70;;;;;;4976215;28;20492;-13
2022/03/21 00:49:33;;;;;;;4.30;4.07;;;17.20;60.80;;;;;;4975906;28;20047;-12
2022/03/21 00:51:58;;;;;;;4.20;4.00;;;17.10;60.70;;;;;;4976160;28;20050;-12
2022/03/21 00:54:24;;;;;;;4.53;4.30;;;17.10;60.80;;;;;;4982648;28;20512;-12
2022/03/21 00:56:50;;;;;;;4.00;3.80;;;17.10;60.80;;;;;;4995104;28;20046;-13
2022/03/21 00:59:16;;;;;;;4.32;4.07;;;17.10;60.70;;;;;;4995334;28;20144;-12
2022/03/21 01:01:41;;;;;;;3.88;3.67;;;17.10;60.80;;;;;;4994687;28;20046;-13
2022/03/21 01:04:07;;;;;;;3.45;3.25;;;17.10;60.70;;;;;;4995157;28;20133;-13
2022/03/21 01:06:32;;;;;;;3.80;3.58;;;17.10;60.70;;;;;;4994909;28;20042;-13
2022/03/21 01:08:58;;;;;;;4.00;3.80;;;17.10;60.70;;;;;;4993726;28;20502;-12
2022/03/21 01:11:23;;;;;;;4.13;3.92;;;17.10;60.80;;;;;;4995296;28;20042;-13
2022/03/21 01:13:50;;;;;;;3.63;3.42;;;17.10;60.80;;;;;;4991788;28;20043;-13
2022/03/21 01:16:15;;;;;;;3.58;3.38;;;17.10;60.80;;;;;;4976237;28;20061;-13
2022/03/21 01:18:44;;;;;;;4.05;3.85;;;17.10;60.70;;;;;;4975462;28;20499;-13
2022/03/21 01:21:13;;;;;;;4.00;3.70;;;17.10;60.70;;;;;;4981664;28;20054;-12
2022/03/21 01:23:39;;;;;;;4.22;3.92;;;17.10;60.70;;;;;;4994647;28;20439;-12
2022/03/21 01:26:05;;;;;;;3.85;3.65;;;17.10;60.70;;;;;;4995266;28;20053;-12
2022/03/21 01:28:30;;;;;;;3.60;3.40;;;17.10;60.80;;;;;;4994940;28;20043;-12
2022/03/21 01:30:56;;;;;;;4.20;3.92;;;17.10;60.80;;;;;;4987158;28;20567;-13
2022/03/21 01:33:21;;;;;;;3.70;3.50;;;17.00;60.80;;;;;;4988259;28;20058;-12
2022/03/21 01:35:47;;;;;;;3.70;3.50;;;17.00;60.70;;;;;;4975460;28;20058;-13
2022/03/21 01:38:13;;;;;;;3.75;3.55;;;17.10;60.80;;;;;;4976096;28;20678;-13
2022/03/21 01:40:38;;;;;;;3.47;3.28;;;17.00;60.80;;;;;;4982350;28;20185;-13
2022/03/21 01:43:11;;;;;;;4.00;3.80;;;17.10;60.90;;;;;;4994634;28;20045;-12
2022/03/21 01:45:36;;;;;;;3.80;3.60;;;17.10;60.90;;;;;;4994770;28;20077;-13
2022/03/21 01:48:02;;;;;;;3.70;3.50;;;17.00;60.80;;;;;;4987113;28;20039;-12
2022/03/21 01:50:27;;;;;;;4.00;3.80;;;17.10;60.80;;;;;;4975959;28;20042;-12
2022/03/21 01:55:43;;;;;;;3.33;3.13;;;17.00;60.80;;;;;;4995291;28;20047;-13
2022/03/21 01:55:45;;;;;;;3.70;3.50;;;17.00;60.70;;;;;;4996750;28;20053;-13
2022/03/21 01:58:13;;;;;;;4.10;3.80;;;17.10;60.80;;;;;;4998257;28;20041;-12
2022/03/21 02:00:41;;;;;;;3.42;3.22;;;17.00;60.80;;;;;;4989172;28;20565;-12
2022/03/21 02:03:07;;;;;;;3.80;3.60;;;17.00;60.80;;;;;;4998710;28;20042;-13
2022/03/21 02:05:33;;;;;;;3.90;3.70;;;17.00;60.80;;;;;;4998656;28;20114;-12
2022/03/21 02:07:59;;;;;;;4.00;3.80;;;17.00;60.80;;;;;;4997355;28;20093;-14
2022/03/21 02:10:25;;;;;;;3.53;3.33;;;17.00;60.90;;;;;;4998345;28;20809;-13
2022/03/21 02:12:50;;;;;;;3.33;3.13;;;17.00;61.70;;;;;;4997926;28;20038;-12
2022/03/21 02:15:16;;;;;;;3.60;3.40;;;17.00;60.90;;;;;;4997150;28;20084;-15
2022/03/21 02:17:42;;;;;;;3.72;3.53;;;17.00;60.80;;;;;;4992633;28;20051;-13
2022/03/21 02:20:09;;;;;;;3.50;3.30;;;17.00;60.70;;;;;;4978732;28;20471;-13
2022/03/21 02:22:56;;;;;;;3.38;3.17;;;17.00;60.80;;;;;;4978066;28;20073;-14
2022/03/21 02:25:30;;;;;;;3.28;3.08;;;17.00;60.90;;;;;;4983761;28;20038;-13
2022/03/21 02:27:57;;;;;;;3.53;3.33;;;17.00;60.90;;;;;;4997434;28;20077;-13
2022/03/21 02:30:23;;;;;;;4.28;3.97;;;17.00;60.90;;;;;;4996334;28;20046;-13
2022/03/21 02:32:48;;;;;;;3.53;3.33;;;17.00;60.80;;;;;;4996968;28;20039;-13
2022/03/21 02:35:14;;;;;;;4.03;3.83;;;17.00;60.80;;;;;;4996477;28;20049;-14
2022/03/21 02:37:40;;;;;;;3.88;3.55;;;17.00;60.80;;;;;;4995021;28;20038;-13
2022/03/21 02:40:08;;;;;;;3.25;3.05;;;17.00;60.80;;;;;;4996734;28;20050;-13
2022/03/21 02:42:34;;;;;;;3.72;3.53;;;17.00;60.80;;;;;;4996800;28;20038;-12
2022/03/21 02:44:59;;;;;;;3.35;3.15;;;17.00;60.80;;;;;;4997041;28;20070;-12
2022/03/21 02:47:25;;;;;;;3.15;2.95;;;17.00;60.80;;;;;;4997887;28;20050;-13
2022/03/21 02:49:51;;;;;;;3.78;3.47;;;17.00;60.80;;;;;;4996607;28;20034;-12
2022/03/21 02:52:16;;;;;;;3.20;3.00;;;17.00;60.80;;;;;;4997572;28;20054;-13
2022/03/21 02:54:42;;;;;;;3.05;2.85;;;16.90;60.70;;;;;;4996652;28;20065;-13
2022/03/21 02:57:07;;;;;;;2.95;2.85;;;17.00;60.80;;;;;;4996940;28;20068;-12
2022/03/21 02:59:33;;;;;;;3.45;3.25;;;16.90;60.70;;;;;;4997531;28;20034;-12
2022/03/21 03:01:59;;;;;;;3.65;3.40;;;17.00;60.80;;;;;;4996657;28;20042;-14
2022/03/21 03:04:25;;;;;;;3.30;3.10;;;17.00;60.70;;;;;;4996838;28;20072;-13
2022/03/21 03:06:51;;;;;;;3.63;3.42;;;17.00;60.70;;;;;;4979103;28;20046;-13
2022/03/21 03:09:16;;;;;;;3.60;3.40;;;17.00;60.60;;;;;;4978115;28;20042;-12
2022/03/21 03:11:42;;;;;;;3.20;3.00;;;17.00;60.70;;;;;;4980972;28;20455;-13
2022/03/21 03:14:08;;;;;;;2.85;2.75;;;17.00;60.80;;;;;;4996704;28;20050;-13
2022/03/21 03:16:34;;;;;;;3.33;3.13;;;16.90;60.80;;;;;;4997359;28;20472;-12
2022/03/21 03:18:59;;;;;;;3.63;3.42;;;16.90;60.80;;;;;;4996520;28;20054;-13
2022/03/21 03:21:27;;;;;;;3.05;2.95;;;16.90;60.80;;;;;;4980477;28;20105;-13
2022/03/21 03:23:53;;;;;;;3.28;3.17;;;16.90;60.80;;;;;;4981668;28;20578;-12
2022/03/21 03:26:19;;;;;;;3.30;3.10;;;16.90;60.90;;;;;;4995651;28;20050;-13
2022/03/21 03:28:45;;;;;;;3.05;2.85;;;16.90;60.80;;;;;;4996235;28;20053;-13
2022/03/21 03:31:13;;;;;;;2.83;2.72;;;16.90;60.90;;;;;;4983730;28;20172;-13
2022/03/21 03:33:38;;;;;;;2.90;2.80;;;16.90;60.90;;;;;;4977021;28;20039;-15
2022/03/21 03:36:04;;;;;;;2.95;2.85;;;16.90;60.90;;;;;;4977333;28;20061;-13
2022/03/21 03:38:30;;;;;;;3.28;3.08;;;16.90;60.90;;;;;;4990257;28;20046;-13
2022/03/21 03:40:56;;;;;;;2.90;2.70;;;16.90;60.90;;;;;;4996339;28;20065;-12
2022/03/21 03:43:22;;;;;;;3.30;3.10;;;16.90;60.90;;;;;;4996396;28;20072;-12
2022/03/21 03:45:52;;;;;;;2.72;2.63;;;16.90;60.90;;;;;;4995419;28;20125;-12
2022/03/21 03:48:19;;;;;;;3.22;3.03;;;16.90;61.00;;;;;;4996697;28;20039;-14
2022/03/21 03:50:45;;;;;;;3.05;2.85;;;16.90;61.00;;;;;;4995148;28;20066;-13
2022/03/21 03:53:11;;;;;;;2.85;2.67;;;16.90;60.90;;;;;;4995852;28;20049;-14
2022/03/21 03:55:37;;;;;;;3.13;3.03;;;16.90;61.00;;;;;;4996666;28;20115;-14
2022/03/21 03:58:02;;;;;;;3.35;3.15;;;16.90;60.80;;;;;;4995649;28;20053;-13
2022/03/21 04:00:28;;;;;;;2.78;2.67;;;16.90;60.80;;;;;;4996463;28;20038;-14
2022/03/21 04:05:38;;;;;;;3.15;3.05;;;16.90;60.90;;;;;;4996504;28;20048;-13
2022/03/21 04:08:04;;;;;;;3.25;3.05;;;16.90;61.00;;;;;;4995474;28;20038;-13
2022/03/21 04:10:29;;;;;;;2.80;2.63;;;16.90;61.00;;;;;;4980723;28;20054;-12
2022/03/21 04:12:55;;;;;;;3.00;2.80;;;16.90;61.00;;;;;;4981672;28;20035;-13
2022/03/21 04:15:22;;;;;;;2.70;2.60;;;16.90;61.00;;;;;;4980106;28;20085;-12
2022/03/21 04:17:47;;;;;;;2.80;2.70;;;16.90;61.00;;;;;;4976203;28;20067;-13
2022/03/21 04:20:13;;;;;;;2.78;2.67;;;16.90;61.00;;;;;;4976674;28;20058;-13
2022/03/21 04:22:39;;;;;;;2.88;2.78;;;16.90;60.80;;;;;;4976539;28;20046;-12
2022/03/21 04:25:06;;;;;;;2.97;2.78;;;16.90;61.00;;;;;;4994401;28;20061;-12
2022/03/21 04:27:32;;;;;;;2.83;2.72;;;16.90;61.00;;;;;;4995982;28;20039;-13
2022/03/21 04:29:58;;;;;;;2.88;2.78;;;16.90;61.10;;;;;;4976054;28;20120;-13
2022/03/21 04:32:23;;;;;;;2.90;2.80;;;16.80;60.90;;;;;;4977097;28;20042;-12
2022/03/21 04:34:49;;;;;;;3.70;3.50;;;16.90;61.00;;;;;;4976101;28;20070;-12
2022/03/21 04:37:15;;;;;;;2.70;2.60;;;16.90;60.90;;;;;;4987441;28;20062;-13
2022/03/21 04:39:40;;;;;;;3.03;2.83;;;16.90;61.60;;;;;;4984209;28;20526;-12
2022/03/21 04:42:06;;;;;;;2.50;2.40;;;16.90;60.80;;;;;;4976071;28;20038;-12
2022/03/21 04:44:32;;;;;;;3.10;3.00;;;16.90;60.70;;;;;;4989991;28;20554;-12
2022/03/21 04:46:57;;;;;;;2.95;2.85;;;16.90;60.80;;;;;;4995317;28;20048;-12
2022/03/21 04:49:23;;;;;;;2.95;2.85;;;16.80;60.70;;;;;;4995214;28;20076;-12
2022/03/21 04:51:48;;;;;;;2.42;2.33;;;16.80;60.90;;;;;;4995042;28;20034;-13
2022/03/21 04:54:14;;;;;;;2.70;2.60;;;16.80;60.90;;;;;;4995971;28;20041;-13
2022/03/21 04:56:40;;;;;;;3.08;2.88;;;16.90;61.00;;;;;;4995308;28;20042;-12
2022/03/21 04:59:07;;;;;;;2.78;2.65;;;16.90;60.90;;;;;;4994997;28;20566;-13
2022/03/21 05:01:33;;;;;;;3.33;3.13;;;16.80;60.90;;;;;;4995237;28;20054;-13
2022/03/21 05:04:00;;;;;;;3.10;3.00;;;16.80;60.90;;;;;;4995225;28;20038;-12
2022/03/21 05:06:25;;;;;;;2.90;2.70;;;16.80;60.90;;;;;;4995642;28;20042;-14
2022/03/21 05:08:51;;;;;;;2.60;2.50;;;16.80;60.90;;;;;;4984288;28;20051;-13
2022/03/21 05:11:17;;;;;;;2.45;2.35;;;16.80;60.90;;;;;;4975120;28;20039;-13
2022/03/21 05:13:42;;;;;;;2.65;2.55;;;16.80;61.00;;;;;;4983979;28;20042;-14
2022/03/21 05:16:08;;;;;;;2.60;2.50;;;16.80;60.90;;;;;;4994441;28;20045;-12
2022/03/21 05:18:36;;;;;;;2.60;2.50;;;16.80;61.00;;;;;;4995403;28;20074;-13
2022/03/21 05:21:03;;;;;;;2.58;2.47;;;16.80;61.10;;;;;;4976007;28;20535;-13
2022/03/21 05:31:41;;;;;;;2.40;2.30;;;16.90;61.20;;;;;;4982475;28;20070;-13
2022/03/21 05:36:53;;;;;;;;;;;16.80;61.10;;;;;;4998256;28;20049;-13
2022/03/21 05:39:18;;;;;;;2.50;2.40;;;16.80;61.20;;;;;;4990906;28;19921;-12
2022/03/21 05:41:44;;;;;;;2.30;2.20;;;16.80;61.20;;;;;;4979497;28;20039;-13
2022/03/21 05:44:11;;;;;;;2.63;2.53;;;16.80;61.20;;;;;;4982171;28;20039;-13
2022/03/21 05:46:37;;;;;;;2.30;2.20;;;16.80;61.20;;;;;;4998331;28;20053;-14
2022/03/21 05:49:03;;;;;;;2.33;2.22;;;16.80;61.30;;;;;;4998305;28;20146;-13
2022/03/21 05:51:30;;;;;;;2.42;2.33;;;16.80;61.20;;;;;;4998169;28;20174;-13
2022/03/21 05:54:00;;;;;;;2.80;2.70;;;16.80;61.10;;;;;;4996965;28;20050;-14
2022/03/21 05:56:27;;;;;;;2.60;2.40;;;16.80;61.20;;;;;;4979395;28;20500;-12
2022/03/21 05:58:53;;;;;;;2.42;2.30;;;16.80;61.30;;;;;;4978687;28;20101;-12
2022/03/21 06:01:22;;;;;;;2.50;2.40;;;16.80;61.30;;;;;;4997256;28;20093;-12
2022/03/21 06:03:52;;;;;;;2.25;2.15;;;16.80;61.20;;;;;;4998060;28;20047;-15
2022/03/21 06:06:18;;;;;;;2.47;2.35;;;16.80;61.30;;;;;;4998352;28;20109;-12
2022/03/21 06:08:44;;;;;;;2.55;2.45;;;16.80;61.40;;;;;;4997929;28;20047;-12
2022/03/21 06:11:12;;;;;;;2.38;2.28;;;16.80;61.30;;;;;;4996153;28;20097;-14
2022/03/21 06:13:39;;;;;;;2.65;2.55;;;16.80;61.30;;;;;;4988135;28;20073;-14
2022/03/21 06:16:06;;;;;;;2.45;2.35;;;16.80;61.60;;;;;;4997473;28;20042;-13
2022/03/21 06:18:32;;;;;;;4.10;2.95;;;16.80;61.60;;;;;;4998470;28;20045;-13
2022/03/21 06:20:58;;;;;;;3.95;2.60;;;16.80;61.80;;;;;;4997013;28;20043;-13
2022/03/21 06:23:24;;;;;;;12.88;3.75;;;16.70;62.10;;;;;;4997990;28;20047;-13
2022/03/21 06:25:51;;;;;;;8.88;3.20;;;16.80;61.80;;;;;;4646794;28;10000640;-12
2022/03/21 06:28:17;;;;;;;12.35;3.05;;;16.80;61.60;;;;;;4992612;28;20137;-13
2022/03/21 06:30:42;;;;;;;6.13;2.80;;;16.80;61.70;;;;;;4993160;28;20114;-15
2022/03/21 06:33:08;;;;;;;14.30;3.45;;;16.80;61.60;;;;;;4992417;28;20042;-12
2022/03/21 06:35:34;;;;;;;11.65;2.92;;;16.80;61.70;;;;;;4987436;28;20081;-12
2022/03/21 06:38:00;;;;;;;5.22;2.78;;;16.90;61.70;;;;;;4991705;28;20074;-14
2022/03/21 06:40:26;;;;;;;5.57;2.72;;;16.80;61.90;;;;;;5007995;28;20053;-12
2022/03/21 06:42:52;;;;;;;8.38;2.58;;;16.80;62.30;;;;;;5005371;28;20172;-13
2022/03/21 06:45:18;;;;;;;13.88;2.30;;;16.80;62.40;;;;;;4999133;28;20077;-13
2022/03/21 06:47:43;;;;;;;7.78;2.88;;;16.80;62.30;;;;;;5001493;28;20046;-13
2022/03/21 06:50:10;;;;;;;5.15;2.35;;;16.80;62.40;;;;;;5003147;28;20419;-13
2022/03/21 06:52:39;;;;;;;3.60;2.22;;;16.80;62.60;;;;;;4985114;28;20499;-13
2022/03/21 06:55:06;;;;;;;5.53;2.38;;;16.90;62.50;;;;;;4975797;28;20408;-12
2022/03/21 06:57:32;;;;;;;5.32;2.30;;;16.80;62.40;;;;;;4976280;28;20042;-12
2022/03/21 06:59:57;;;;;;;10.02;3.10;;;16.80;62.50;;;;;;4992470;28;20046;-13
2022/03/21 07:02:23;;;;;;;5.65;2.40;;;16.80;62.40;;;;;;4995366;28;20054;-13
2022/03/21 07:04:49;;;;;;;6.82;2.58;;;16.80;62.50;;;;;;4995494;28;20050;-14
2022/03/21 07:07:15;;;;;;;7.70;2.75;;;16.80;62.20;;;;;;4995896;28;20070;-13
2022/03/21 07:09:40;;;;;;;6.72;2.35;;;16.80;62.30;;;;;;4994279;28;20507;-13
2022/03/21 07:12:07;;;;;;;8.88;2.78;;;16.90;62.00;;;;;;4981826;28;20503;-12
2022/03/21 07:14:32;;;;;;;5.68;2.40;;;16.90;63.20;;;;;;4993273;28;20060;-13
2022/03/21 07:16:58;;;;;;;5.38;2.00;;;16.80;62.30;;;;;;4976159;28;20098;-12
2022/03/21 07:19:24;;;;;;;3.17;2.25;;;16.90;62.10;;;;;;4987625;28;20058;-13
2022/03/21 07:21:49;;;;;;;4.88;2.42;;;16.80;62.20;;;;;;4996629;28;20518;-13
2022/03/21 07:24:15;;;;;;;9.98;2.25;;;16.80;62.10;;;;;;4991646;28;20057;-14
2022/03/21 07:26:40;;;;;;;4.35;2.30;;;16.80;62.10;;;;;;5008660;28;20042;-12
2022/03/21 07:29:06;;;;;;;5.90;2.17;;;16.80;62.10;;;;;;4996149;28;20073;-12
2022/03/21 07:31:33;;;;;;;2.13;2.03;;;16.80;62.10;;;;;;4996725;28;20046;-13
2022/03/21 07:33:59;;;;;;;4.60;2.20;;;16.80;62.20;;;;;;4994539;28;20054;-14
2022/03/21 07:36:24;;;;;;;3.03;1.85;;;16.80;62.10;;;;;;4996266;28;20048;-12
2022/03/21 07:38:50;;;;;;;2.83;2.05;;;16.90;62.10;;;;;;4988733;28;20109;-12
2022/03/21 07:41:15;;;;;;;3.28;2.17;;;16.90;62.00;;;;;;4985004;28;20057;-14
2022/03/21 07:43:41;;;;;;;2.92;1.70;;;16.80;62.10;;;;;;4996557;28;20039;-12
2022/03/21 07:48:51;;;;;;;2.55;2.00;;;16.90;62.00;;;;;;4975722;28;20561;-14
2022/03/21 07:51:17;;;;;;;2.15;2.05;;;16.80;62.00;;;;;;4975692;28;20047;-13
2022/03/21 07:53:43;;;;;;;7.25;2.13;;;16.90;62.10;;;;;;4987845;28;20053;-13
2022/03/21 07:56:08;;;;;;;5.53;2.03;;;16.90;62.00;;;;;;4991721;28;20050;-13
2022/03/21 07:58:35;;;;;;;3.58;1.90;;;17.00;62.40;;;;;;4993374;28;20050;-12
2022/03/21 08:01:01;;;;;;;3.13;1.90;;;17.00;62.70;;;;;;4994635;28;20042;-12
2022/03/21 08:03:27;;;;;;;4.57;2.03;;;17.00;62.80;;;;;;4993590;28;20057;-13
2022/03/21 08:05:53;;;;;;;2.65;1.80;;;17.00;63.30;;;;;;4994661;28;20043;-13
2022/03/21 08:08:20;;;;;;;4.88;2.13;;;17.00;63.20;;;;;;4975890;28;20065;-13
2022/03/21 08:10:46;;;;;;;4.00;1.98;;;17.00;63.20;;;;;;4995372;28;20049;-12
2022/03/21 08:13:16;;;;;;;3.15;1.90;;;17.00;63.80;;;;;;4994488;28;20046;-13
2022/03/21 08:15:43;;;;;;;4.10;2.20;;;17.00;63.60;;;;;;4986961;28;20651;-12
2022/03/21 08:18:10;;;;;;;3.00;1.90;;;17.00;63.50;;;;;;4990571;28;20078;-12
2022/03/21 08:20:38;;;;;;;3.85;1.75;;;17.00;63.30;;;;;;4994759;28;20065;-12
2022/03/21 08:23:07;;;;;;;2.78;2.10;;;17.00;63.20;;;;;;4994254;28;20034;-12
2022/03/21 08:25:33;;;;;;;2.10;1.90;;;17.00;63.10;;;;;;4986146;28;20046;-13
2022/03/21 08:27:59;;;;;;;2.78;2.00;;;17.20;63.60;;;;;;4994526;28;20048;-13
2022/03/21 08:30:25;;;;;;;1.80;1.70;;;17.10;63.00;;;;;;4995043;28;20663;-12
2022/03/21 08:32:50;;;;;;;5.13;2.05;;;17.10;63.40;;;;;;4990151;28;20093;-12
2022/03/21 08:35:17;;;;;;;2.78;2.20;;;17.00;63.40;;;;;;4979515;28;20050;-14
2022/03/21 08:37:43;;;;;;;2.75;1.77;;;17.00;63.40;;;;;;4993642;28;20073;-13
2022/03/21 08:40:10;;;;;;;2.22;1.88;;;17.00;63.30;;;;;;4997992;28;20054;-13
2022/03/21 08:42:36;;;;;;;2.50;1.70;;;17.00;63.30;;;;;;4999956;28;20053;-12
2022/03/21 08:45:02;;;;;;;1.75;1.65;;;17.00;63.20;;;;;;4979395;28;20507;-13
2022/03/21 08:47:27;;;;;;;2.08;1.70;;;17.10;63.10;;;;;;4992198;28;20054;-13
2022/03/21 08:49:53;;;;;;;5.20;1.63;;;17.20;63.40;;;;;;4990211;28;20050;-13
2022/03/21 08:52:19;;;;;;;2.00;1.55;;;17.20;63.60;;;;;;4987728;28;20106;-13
2022/03/21 08:54:45;;;;;;;1.80;1.70;;;17.20;63.30;;;;;;4990877;28;20112;-13
2022/03/21 08:57:11;;;;;;;2.53;1.95;;;17.20;63.20;;;;;;4981273;28;20384;-13
2022/03/21 08:59:37;;;;;;;2.00;1.80;;;17.20;63.00;;;;;;4994369;28;20113;-14
2022/03/21 09:02:06;;;;;;;2.55;1.67;;;17.20;63.00;;;;;;4997860;28;20049;-13
2022/03/21 09:04:31;;;;;;;2.88;2.10;;;17.30;62.80;;;;;;4998278;28;20046;-13
2022/03/21 09:06:57;;;;;;;3.55;2.00;;;17.30;62.90;;;;;;4998215;28;20491;-12
2022/03/21 09:09:22;;;;;;;3.40;2.00;;;17.30;62.50;;;;;;4997839;28;20042;-13
2022/03/21 09:11:48;;;;;;;2.00;1.90;;;17.30;62.20;;;;;;4997989;28;20104;-12
2022/03/21 09:14:14;;;;;;;2.75;2.20;;;17.30;61.70;;;;;;4997182;28;20054;-13
2022/03/21 09:16:42;;;;;;;2.30;1.73;;;17.30;62.10;;;;;;4998055;28;20630;-12
2022/03/21 09:19:08;;;;;;;9.52;1.88;;;17.30;62.10;;;;;;4995080;28;20061;-12
2022/03/21 09:21:33;;;;;;;3.17;1.70;;;17.30;61.90;;;;;;4978801;28;20051;-12
2022/03/21 09:23:59;;;;;;;3.30;1.65;;;17.30;62.70;;;;;;4984381;28;20045;-12
2022/03/21 09:26:25;;;;;;;1.83;1.73;;;17.30;63.00;;;;;;4987672;28;20079;-13
2022/03/21 09:28:59;;;;;;;3.75;2.22;;;17.30;63.40;;;;;;4995258;28;20045;-13
2022/03/21 09:31:26;;;;;;;2.10;1.90;;;17.40;62.50;;;;;;4996548;28;20054;-12
2022/03/21 09:33:51;;;;;;;1.90;1.70;;;17.40;61.90;;;;;;4997578;28;20054;-13
2022/03/21 09:36:17;;;;;;;1.88;1.77;;;17.40;62.00;;;;;;4996923;28;20049;-13
2022/03/21 09:38:43;;;;;;;1.98;1.73;;;17.40;62.10;;;;;;4981398;28;20039;-13
2022/03/21 09:41:12;;;;;;;1.58;1.48;;;17.50;61.90;;;;;;4978086;28;20066;-14
2022/03/21 09:43:39;;;;;;;2.60;1.90;;;17.50;60.60;;;;;;4970900;28;20054;-12
2022/03/21 09:46:06;;;;;;;2.28;2.08;;;17.60;61.50;;;;;;4979315;28;20050;-15
2022/03/21 09:48:32;;;;;;;3.25;1.73;;;17.60;60.70;;;;;;4985045;28;20050;-16
2022/03/21 09:50:58;;;;;;;4.03;1.60;;;17.60;60.10;;;;;;4982100;28;20134;-16
2022/03/21 09:53:24;;;;;;;1.75;1.63;;;17.60;60.00;;;;;;4984499;28;20045;-16
2022/03/21 09:55:50;;;;;;;2.00;1.90;;;17.60;59.90;;;;;;4983739;28;20077;-16
2022/03/21 09:58:16;;;;;;;2.10;2.00;;;17.60;59.80;;;;;;4982403;28;20740;-16
2022/03/21 10:00:43;;;;;;;1.60;1.60;;;17.70;59.70;;;;;;4984365;28;20112;-16
2022/03/21 10:03:09;;;;;;;1.60;1.50;;;17.70;59.60;;;;;;4983382;28;21383;-13
2022/03/21 10:05:38;;;;;;;2.05;1.88;;;17.70;59.60;;;;;;4982291;28;20062;-13
2022/03/21 10:08:23;;;;;;;1.63;1.52;;;17.80;59.40;;;;;;4982702;28;20038;-15
2022/03/21 10:10:52;;;;;;;1.55;1.45;;;17.80;59.40;;;;;;4984131;28;20050;-14
2022/03/21 10:13:19;;;;;;;1.60;1.50;;;17.80;59.10;;;;;;4981021;28;20042;-12
2022/03/21 10:15:45;;;;;;;1.60;1.50;;;17.90;59.50;;;;;;4982511;28;20069;-13
2022/03/21 10:18:11;;;;;;;1.40;1.30;;;17.90;59.00;;;;;;4982589;28;20092;-13
2022/03/21 10:20:37;;;;;;;1.65;1.55;;;17.90;58.80;;;;;;4983196;28;20054;-15
2022/03/21 10:23:19;;;;;;;1.95;1.40;;;17.90;58.90;;;;;;4983474;28;20634;-16
2022/03/21 10:25:45;;;;;;;1.48;1.38;;;18.00;58.80;;;;;;4981471;28;20051;-16
2022/03/21 10:28:12;;;;;;;1.20;1.20;;;18.00;58.80;;;;;;4982521;28;20066;-16
2022/03/21 10:30:42;;;;;;;1.50;1.40;;;18.10;58.70;;;;;;4981950;28;20046;-15
2022/03/21 10:33:08;;;;;;;2.22;1.55;;;18.10;58.50;;;;;;4983601;28;21477;-16
2022/03/21 10:35:34;;;;;;;1.48;1.38;;;18.10;59.10;;;;;;4997129;28;20404;-13
2022/03/21 10:38:01;;;;;;;1.60;1.50;;;18.10;58.90;;;;;;4995171;28;20052;-14
2022/03/21 10:40:44;;;;;;;1.67;1.58;;;18.10;58.80;;;;;;4987095;28;20094;-14
2022/03/21 10:43:11;;;;;;;1.52;1.42;;;18.10;58.90;;;;;;4991229;28;20047;-13
2022/03/21 10:45:43;;;;;;;1.45;1.35;;;18.10;59.00;;;;;;4993857;28;20050;-13
2022/03/21 10:48:16;;;;;;;1.50;1.40;;;18.20;58.80;;;;;;4986009;28;20066;-13
2022/03/21 10:50:47;;;;;;;1.35;1.35;;;18.20;59.00;;;;;;4996388;28;20038;-14
2022/03/21 10:53:21;;;;;;;1.80;1.70;;;18.20;59.00;;;;;;4995033;28;20462;-14
2022/03/21 10:55:58;;;;;;;1.60;1.25;;;18.20;59.00;;;;;;4996554;28;20047;-13
2022/03/21 10:58:37;;;;;;;1.35;1.25;;;18.20;58.80;;;;;;4995534;28;20046;-12
2022/03/21 11:01:26;;;;;;;1.45;1.42;;;18.30;59.00;;;;;;4996635;28;20526;-13
2022/03/21 11:03:56;;;;;;;2.92;1.60;;;18.30;58.90;;;;;;4991112;28;20047;-13
2022/03/21 11:06:22;;;;;;;1.40;1.30;;;18.30;58.80;;;;;;4976504;28;20043;-14
2022/03/21 11:08:50;;;;;;;1.58;1.48;;;18.30;59.00;;;;;;4976807;28;20550;-13
2022/03/21 11:11:15;;;;;;;1.50;1.40;;;18.30;59.20;;;;;;4990503;28;20042;-13
2022/03/21 11:13:41;;;;;;;1.30;1.30;;;18.20;59.20;;;;;;4995143;28;20046;-12
2022/03/21 11:16:07;;;;;;;1.70;1.60;;;18.30;59.20;;;;;;4994574;28;20054;-14
2022/03/21 11:18:33;;;;;;;1.40;1.27;;;18.30;59.20;;;;;;4992528;28;20054;-13
2022/03/21 11:20:59;;;;;;;2.15;1.40;;;18.30;59.20;;;;;;4976739;28;20065;-13
2022/03/21 11:23:27;;;;;;;1.40;1.30;;;18.30;59.30;;;;;;4975980;28;20049;-13
2022/03/21 11:25:56;;;;;;;1.35;1.30;;;18.30;59.20;;;;;;4985985;28;20569;-12
2022/03/21 11:28:32;;;;;;;1.02;1.02;;;18.30;59.20;;;;;;4993472;28;20105;-12
2022/03/21 11:31:35;;;;;;;1.17;1.15;;;18.30;59.20;;;;;;4995026;28;20046;-14
2022/03/21 11:34:27;;;;;;;1.30;1.20;;;18.30;59.20;;;;;;4991080;28;20045;-13
2022/03/21 11:36:54;;;;;;;1.55;1.45;;;18.30;59.20;;;;;;4988777;28;20043;-13
2022/03/21 11:39:20;;;;;;;1.10;1.00;;;18.30;59.10;;;;;;4975729;28;20047;-13
2022/03/21 11:42:11;;;;;;;1.15;1.13;;;18.30;59.10;;;;;;4976493;28;20035;-13
2022/03/21 11:44:37;;;;;;;1.95;1.30;;;18.40;59.20;;;;;;4976064;28;20043;-14
2022/03/21 11:47:23;;;;;;;1.00;1.00;;;18.40;59.70;;;;;;4976303;28;20039;-12
2022/03/21 11:49:49;;;;;;;1.23;1.23;;;18.40;59.10;;;;;;4975636;28;20046;-12
2022/03/21 11:52:15;;;;;;;1.30;1.20;;;18.40;59.30;;;;;;4975656;28;20043;-13
2022/03/21 11:54:41;;;;;;;1.00;1.00;;;18.30;59.20;;;;;;4994671;28;20104;-13
2022/03/21 11:57:07;;;;;;;0.98;0.98;;;18.40;59.20;;;;;;4995749;28;20081;-12
2022/03/21 11:59:33;;;;;;;1.10;1.10;;;18.40;59.10;;;;;;4994130;28;20157;-15
2022/03/21 12:01:59;;;;;;;1.10;1.10;;;18.40;59.30;;;;;;4995544;28;20038;-12
2022/03/21 12:04:24;;;;;;;1.40;1.00;;;18.30;59.90;;;;;;4646793;28;9999805;-13
2022/03/21 12:06:51;;;;;;;1.20;1.20;;;18.30;59.20;;;;;;4989966;28;20046;-13
2022/03/21 12:09:16;;;;;;;1.13;1.10;;;18.30;59.30;;;;;;5000851;28;20481;-13
2022/03/21 12:11:42;;;;;;;1.00;1.00;;;18.40;59.20;;;;;;4996517;28;20065;-12
2022/03/21 12:14:41;;;;;;;0.90;0.90;;;18.40;59.20;;;;;;4997980;28;20567;-13
2022/03/21 12:17:10;;;;;;;0.90;0.90;;;18.40;59.30;;;;;;4990720;28;20110;-13
2022/03/21 12:19:44;;;;;;;1.00;1.00;;;18.40;59.30;;;;;;5002400;28;20141;-12
2022/03/21 12:22:34;;;;;;;0.98;0.98;;;18.40;59.30;;;;;;4994565;28;20053;-12
2022/03/21 12:25:10;;;;;;;1.20;1.10;;;18.40;59.40;;;;;;4990810;28;20447;-14
2022/03/21 12:27:37;;;;;;;1.13;1.02;;;18.40;59.50;;;;;;4990868;28;20434;-13
2022/03/21 12:30:22;;;;;;;1.20;1.10;;;18.50;60.00;;;;;;4988649;28;20128;-13
2022/03/21 12:32:52;;;;;;;1.20;1.20;;;18.50;59.70;;;;;;4988563;28;20080;-13
2022/03/21 12:35:39;;;;;;;1.17;1.17;;;18.50;59.70;;;;;;4995141;28;20050;-13
2022/03/21 12:38:06;;;;;;;0.95;0.90;;;18.40;59.90;;;;;;4991093;28;20053;-13
2022/03/21 12:40:35;;;;;;;1.35;1.00;;;18.50;60.10;;;;;;4994489;28;20038;-13
2022/03/21 12:43:01;;;;;;;1.85;1.02;;;18.40;60.20;;;;;;4993207;28;20121;-12
2022/03/21 12:45:28;;;;;;;1.00;1.00;;;18.40;60.20;;;;;;4993206;28;20092;-12
2022/03/21 12:48:05;;;;;;;0.90;0.90;;;18.40;60.10;;;;;;4994441;28;20042;-13
2022/03/21 12:50:31;;;;;;;1.23;1.00;;;18.40;60.20;;;;;;4992618;28;20038;-12
2022/03/21 12:53:07;;;;;;;1.25;1.25;;;18.40;60.10;;;;;;4994385;28;20046;-14
2022/03/21 12:55:33;;;;;;;2.35;1.20;;;18.40;60.10;;;;;;4994586;28;20085;-13
2022/03/21 12:58:00;;;;;;;1.10;1.10;;;18.40;60.20;;;;;;4989355;28;20485;-14
2022/03/21 13:00:27;;;;;;;1.23;1.13;;;18.40;60.30;;;;;;4984723;28;20061;-13
2022/03/21 13:02:56;;;;;;;1.13;1.05;;;18.40;60.30;;;;;;4994906;28;20533;-13